sensor_id;sensor_type;location;lat;lon;timestamp;temperature;humidity
37702;DHT22;23548;51.196;6.838;2022-08-02T00:01:42;16.90;99.90
37702;DHT22;23548;51.196;6.838;2022-08-02T00:04:08;16.90;99.90
37702;DHT22;23548;51.196;6.838;2022-08-02T00:06:34;16.90;99.90
37702;DHT22;23548;51.196;6.838;2022-08-02T00:09:00;16.90;99.90
37702;DHT22;23548;51.196;6.838;2022-08-02T00:11:26;16.90;99.90
37702;DHT22;23548;51.196;6.838;2022-08-02T00:13:52;16.90;99.90
37702;DHT22;23548;51.196;6.838;2022-08-02T00:16:18;16.90;99.90
37702;DHT22;23548;51.196;6.838;2022-08-02T00:18:44;16.80;99.90
37702;DHT22;23548;51.196;6.838;2022-08-02T00:21:10;16.80;99.90
37702;DHT22;23548;51.196;6.838;2022-08-02T00:23:35;16.70;99.90
37702;DHT22;23548;51.196;6.838;2022-08-02T00:26:01;16.60;99.90
37702;DHT22;23548;51.196;6.838;2022-08-02T00:28:27;16.60;99.90
37702;DHT22;23548;51.196;6.838;2022-08-02T00:30:53;16.60;99.90
37702;DHT22;23548;51.196;6.838;2022-08-02T00:33:18;16.50;99.90
37702;DHT22;23548;51.196;6.838;2022-08-02T00:35:44;16.50;99.90
37702;DHT22;23548;51.196;6.838;2022-08-02T00:38:13;16.50;99.90
37702;DHT22;23548;51.196;6.838;2022-08-02T00:40:40;16.50;99.90
37702;DHT22;23548;51.196;6.838;2022-08-02T00:43:07;16.50;99.90
37702;DHT22;23548;51.196;6.838;2022-08-02T00:45:35;16.50;99.90
37702;DHT22;23548;51.196;6.838;2022-08-02T00:48:03;16.50;99.90
37702;DHT22;23548;51.196;6.838;2022-08-02T00:50:29;16.50;99.90
37702;DHT22;23548;51.196;6.838;2022-08-02T00:52:55;16.40;99.90
37702;DHT22;23548;51.196;6.838;2022-08-02T00:55:21;16.50;99.90
37702;DHT22;23548;51.196;6.838;2022-08-02T00:57:47;16.50;99.90
37702;DHT22;23548;51.196;6.838;2022-08-02T01:00:14;16.40;99.90
37702;DHT22;23548;51.196;6.838;2022-08-02T01:02:40;16.40;99.90
37702;DHT22;23548;51.196;6.838;2022-08-02T01:05:06;16.30;99.90
37702;DHT22;23548;51.196;6.838;2022-08-02T01:07:32;16.30;99.90
37702;DHT22;23548;51.196;6.838;2022-08-02T01:09:58;16.30;99.90
37702;DHT22;23548;51.196;6.838;2022-08-02T01:12:25;16.30;99.90
37702;DHT22;23548;51.196;6.838;2022-08-02T01:14:53;16.20;99.90
37702;DHT22;23548;51.196;6.838;2022-08-02T01:20:18;16.10;99.90
37702;DHT22;23548;51.196;6.838;2022-08-02T01:35:18;16.10;99.90
37702;DHT22;23548;51.196;6.838;2022-08-02T01:37:57;16.10;99.90
37702;DHT22;23548;51.196;6.838;2022-08-02T01:40:31;16.10;99.90
37702;DHT22;23548;51.196;6.838;2022-08-02T01:42:59;16.20;99.90
37702;DHT22;23548;51.196;6.838;2022-08-02T01:45:29;16.20;99.90
37702;DHT22;23548;51.196;6.838;2022-08-02T01:47:58;16.20;99.90
37702;DHT22;23548;51.196;6.838;2022-08-02T01:50:30;16.10;99.90
37702;DHT22;23548;51.196;6.838;2022-08-02T01:52:59;16.00;99.90
37702;DHT22;23548;51.196;6.838;2022-08-02T01:55:34;16.00;99.90
37702;DHT22;23548;51.196;6.838;2022-08-02T01:58:03;16.00;99.90
37702;DHT22;23548;51.196;6.838;2022-08-02T02:00:33;16.00;99.90
37702;DHT22;23548;51.196;6.838;2022-08-02T02:03:01;16.00;99.90
37702;DHT22;23548;51.196;6.838;2022-08-02T02:05:30;16.00;99.90
37702;DHT22;23548;51.196;6.838;2022-08-02T02:07:57;16.00;99.90
37702;DHT22;23548;51.196;6.838;2022-08-02T02:11:01;15.90;99.90
37702;DHT22;23548;51.196;6.838;2022-08-02T02:13:28;15.90;99.90
37702;DHT22;23548;51.196;6.838;2022-08-02T02:15:55;15.90;99.90
37702;DHT22;23548;51.196;6.838;2022-08-02T02:18:24;15.90;99.90
37702;DHT22;23548;51.196;6.838;2022-08-02T02:20:50;15.90;99.90
37702;DHT22;23548;51.196;6.838;2022-08-02T02:23:16;15.80;99.90
37702;DHT22;23548;51.196;6.838;2022-08-02T02:25:43;15.80;99.90
37702;DHT22;23548;51.196;6.838;2022-08-02T02:28:25;15.70;99.90
37702;DHT22;23548;51.196;6.838;2022-08-02T02:31:05;15.70;99.90
37702;DHT22;23548;51.196;6.838;2022-08-02T02:33:34;15.60;99.90
37702;DHT22;23548;51.196;6.838;2022-08-02T02:36:02;15.70;99.90
37702;DHT22;23548;51.196;6.838;2022-08-02T02:38:32;15.70;99.90
37702;DHT22;23548;51.196;6.838;2022-08-02T02:41:00;15.70;99.90
37702;DHT22;23548;51.196;6.838;2022-08-02T02:43:27;15.60;99.90
37702;DHT22;23548;51.196;6.838;2022-08-02T02:45:55;15.50;99.90
37702;DHT22;23548;51.196;6.838;2022-08-02T02:48:23;15.50;99.90
37702;DHT22;23548;51.196;6.838;2022-08-02T02:50:49;15.50;99.90
37702;DHT22;23548;51.196;6.838;2022-08-02T02:53:17;15.50;99.90
37702;DHT22;23548;51.196;6.838;2022-08-02T02:55:45;15.50;99.90
37702;DHT22;23548;51.196;6.838;2022-08-02T02:58:12;15.40;99.90
37702;DHT22;23548;51.196;6.838;2022-08-02T03:00:38;15.40;99.90
37702;DHT22;23548;51.196;6.838;2022-08-02T03:03:23;15.30;99.90
37702;DHT22;23548;51.196;6.838;2022-08-02T03:05:50;15.30;99.90
37702;DHT22;23548;51.196;6.838;2022-08-02T03:08:15;15.30;99.90
37702;DHT22;23548;51.196;6.838;2022-08-02T03:10:42;15.30;99.90
37702;DHT22;23548;51.196;6.838;2022-08-02T03:13:09;15.30;99.90
37702;DHT22;23548;51.196;6.838;2022-08-02T03:15:36;15.30;99.90
37702;DHT22;23548;51.196;6.838;2022-08-02T03:18:02;15.30;99.90
37702;DHT22;23548;51.196;6.838;2022-08-02T03:20:28;15.30;99.90
37702;DHT22;23548;51.196;6.838;2022-08-02T03:22:54;15.30;99.90
37702;DHT22;23548;51.196;6.838;2022-08-02T03:25:19;15.30;99.90
37702;DHT22;23548;51.196;6.838;2022-08-02T03:27:46;15.30;99.90
37702;DHT22;23548;51.196;6.838;2022-08-02T03:32:44;15.20;99.90
37702;DHT22;23548;51.196;6.838;2022-08-02T03:35:12;15.30;99.90
37702;DHT22;23548;51.196;6.838;2022-08-02T03:37:39;15.30;99.90
37702;DHT22;23548;51.196;6.838;2022-08-02T03:40:07;15.30;99.90
37702;DHT22;23548;51.196;6.838;2022-08-02T03:42:33;15.30;99.90
37702;DHT22;23548;51.196;6.838;2022-08-02T03:45:01;15.30;99.90
37702;DHT22;23548;51.196;6.838;2022-08-02T03:47:28;15.30;99.90
37702;DHT22;23548;51.196;6.838;2022-08-02T03:49:54;15.30;99.90
37702;DHT22;23548;51.196;6.838;2022-08-02T03:52:22;15.30;99.90
37702;DHT22;23548;51.196;6.838;2022-08-02T03:54:48;15.30;99.90
37702;DHT22;23548;51.196;6.838;2022-08-02T03:57:14;15.20;99.90
37702;DHT22;23548;51.196;6.838;2022-08-02T03:59:44;15.30;99.90
37702;DHT22;23548;51.196;6.838;2022-08-02T04:02:11;15.20;99.90
37702;DHT22;23548;51.196;6.838;2022-08-02T04:04:37;15.20;99.90
37702;DHT22;23548;51.196;6.838;2022-08-02T04:07:04;15.20;99.90
37702;DHT22;23548;51.196;6.838;2022-08-02T04:09:30;15.20;99.90
37702;DHT22;23548;51.196;6.838;2022-08-02T04:11:56;15.20;99.90
37702;DHT22;23548;51.196;6.838;2022-08-02T04:14:22;15.30;99.90
37702;DHT22;23548;51.196;6.838;2022-08-02T04:16:54;15.30;99.90
37702;DHT22;23548;51.196;6.838;2022-08-02T04:21:53;15.40;99.90
37702;DHT22;23548;51.196;6.838;2022-08-02T04:24:26;15.40;99.90
37702;DHT22;23548;51.196;6.838;2022-08-02T04:26:54;15.40;99.90
37702;DHT22;23548;51.196;6.838;2022-08-02T04:29:21;15.40;99.90
37702;DHT22;23548;51.196;6.838;2022-08-02T04:31:48;15.50;99.90
37702;DHT22;23548;51.196;6.838;2022-08-02T04:34:14;15.50;99.90
37702;DHT22;23548;51.196;6.838;2022-08-02T04:36:40;15.50;99.90
37702;DHT22;23548;51.196;6.838;2022-08-02T04:39:06;15.50;99.90
37702;DHT22;23548;51.196;6.838;2022-08-02T04:41:42;15.50;99.90
37702;DHT22;23548;51.196;6.838;2022-08-02T04:44:08;15.60;99.90
37702;DHT22;23548;51.196;6.838;2022-08-02T04:46:35;15.60;99.90
37702;DHT22;23548;51.196;6.838;2022-08-02T04:49:01;15.70;99.90
37702;DHT22;23548;51.196;6.838;2022-08-02T04:51:27;15.70;99.90
37702;DHT22;23548;51.196;6.838;2022-08-02T04:53:52;15.80;99.90
37702;DHT22;23548;51.196;6.838;2022-08-02T04:56:18;15.80;99.90
37702;DHT22;23548;51.196;6.838;2022-08-02T04:58:44;15.90;99.90
37702;DHT22;23548;51.196;6.838;2022-08-02T05:01:09;16.10;99.90
37702;DHT22;23548;51.196;6.838;2022-08-02T05:03:35;16.00;99.90
37702;DHT22;23548;51.196;6.838;2022-08-02T05:06:01;16.00;99.90
37702;DHT22;23548;51.196;6.838;2022-08-02T05:08:27;16.10;99.90
37702;DHT22;23548;51.196;6.838;2022-08-02T05:10:52;16.20;99.90
37702;DHT22;23548;51.196;6.838;2022-08-02T05:13:18;16.20;99.90
37702;DHT22;23548;51.196;6.838;2022-08-02T05:15:47;16.40;99.90
37702;DHT22;23548;51.196;6.838;2022-08-02T05:18:13;16.40;99.90
37702;DHT22;23548;51.196;6.838;2022-08-02T05:20:39;16.30;99.90
37702;DHT22;23548;51.196;6.838;2022-08-02T05:23:05;16.40;99.90
37702;DHT22;23548;51.196;6.838;2022-08-02T05:25:30;16.50;99.90
37702;DHT22;23548;51.196;6.838;2022-08-02T05:27:56;16.60;99.90
37702;DHT22;23548;51.196;6.838;2022-08-02T05:30:22;16.70;99.90
37702;DHT22;23548;51.196;6.838;2022-08-02T05:32:49;16.80;99.90
37702;DHT22;23548;51.196;6.838;2022-08-02T05:35:17;16.90;99.90
37702;DHT22;23548;51.196;6.838;2022-08-02T05:37:44;17.10;99.90
37702;DHT22;23548;51.196;6.838;2022-08-02T05:40:10;17.20;99.90
37702;DHT22;23548;51.196;6.838;2022-08-02T05:42:36;17.20;99.90
37702;DHT22;23548;51.196;6.838;2022-08-02T05:45:02;17.30;99.90
37702;DHT22;23548;51.196;6.838;2022-08-02T05:47:28;17.40;99.90
37702;DHT22;23548;51.196;6.838;2022-08-02T05:49:54;17.40;99.90
37702;DHT22;23548;51.196;6.838;2022-08-02T05:52:20;17.60;99.90
37702;DHT22;23548;51.196;6.838;2022-08-02T05:58:26;17.90;99.90
37702;DHT22;23548;51.196;6.838;2022-08-02T06:00:55;18.00;99.90
37702;DHT22;23548;51.196;6.838;2022-08-02T06:03:34;18.10;99.90
37702;DHT22;23548;51.196;6.838;2022-08-02T06:06:11;18.30;99.90
37702;DHT22;23548;51.196;6.838;2022-08-02T06:08:41;18.30;99.90
37702;DHT22;23548;51.196;6.838;2022-08-02T06:11:11;18.60;99.90
37702;DHT22;23548;51.196;6.838;2022-08-02T06:13:40;18.70;99.90
37702;DHT22;23548;51.196;6.838;2022-08-02T06:16:07;18.60;99.90
37702;DHT22;23548;51.196;6.838;2022-08-02T06:18:32;18.70;99.90
37702;DHT22;23548;51.196;6.838;2022-08-02T06:21:01;18.90;99.90
37702;DHT22;23548;51.196;6.838;2022-08-02T06:23:28;19.10;99.90
37702;DHT22;23548;51.196;6.838;2022-08-02T06:25:56;19.00;99.90
37702;DHT22;23548;51.196;6.838;2022-08-02T06:28:23;19.00;99.90
37702;DHT22;23548;51.196;6.838;2022-08-02T06:30:49;19.30;99.90
37702;DHT22;23548;51.196;6.838;2022-08-02T06:33:15;19.50;99.90
37702;DHT22;23548;51.196;6.838;2022-08-02T06:38:24;19.80;99.90
37702;DHT22;23548;51.196;6.838;2022-08-02T06:41:15;20.00;99.90
37702;DHT22;23548;51.196;6.838;2022-08-02T06:43:54;20.20;99.90
37702;DHT22;23548;51.196;6.838;2022-08-02T06:46:24;20.30;99.90
37702;DHT22;23548;51.196;6.838;2022-08-02T06:48:49;20.40;99.90
37702;DHT22;23548;51.196;6.838;2022-08-02T06:51:16;20.60;99.90
37702;DHT22;23548;51.196;6.838;2022-08-02T06:53:42;20.60;99.90
37702;DHT22;23548;51.196;6.838;2022-08-02T06:56:08;20.70;99.90
37702;DHT22;23548;51.196;6.838;2022-08-02T06:58:34;20.70;99.90
37702;DHT22;23548;51.196;6.838;2022-08-02T07:01:00;20.90;99.90
37702;DHT22;23548;51.196;6.838;2022-08-02T07:03:26;20.90;99.90
37702;DHT22;23548;51.196;6.838;2022-08-02T07:05:52;21.00;99.90
37702;DHT22;23548;51.196;6.838;2022-08-02T07:08:19;21.00;99.90
37702;DHT22;23548;51.196;6.838;2022-08-02T07:10:45;21.10;99.90
37702;DHT22;23548;51.196;6.838;2022-08-02T07:13:11;21.00;99.90
37702;DHT22;23548;51.196;6.838;2022-08-02T07:15:39;21.20;99.90
37702;DHT22;23548;51.196;6.838;2022-08-02T07:18:16;21.30;99.90
37702;DHT22;23548;51.196;6.838;2022-08-02T07:20:42;21.20;99.90
37702;DHT22;23548;51.196;6.838;2022-08-02T07:23:08;21.40;99.90
37702;DHT22;23548;51.196;6.838;2022-08-02T07:25:34;21.50;99.90
37702;DHT22;23548;51.196;6.838;2022-08-02T07:28:00;21.60;99.90
37702;DHT22;23548;51.196;6.838;2022-08-02T07:30:25;21.70;99.90
37702;DHT22;23548;51.196;6.838;2022-08-02T07:32:51;21.80;99.90
37702;DHT22;23548;51.196;6.838;2022-08-02T07:35:17;22.10;99.90
37702;DHT22;23548;51.196;6.838;2022-08-02T07:37:43;22.20;99.90
37702;DHT22;23548;51.196;6.838;2022-08-02T07:40:12;22.30;99.90
37702;DHT22;23548;51.196;6.838;2022-08-02T07:42:38;22.30;99.90
37702;DHT22;23548;51.196;6.838;2022-08-02T07:45:04;22.10;99.90
37702;DHT22;23548;51.196;6.838;2022-08-02T07:47:30;22.10;99.90
37702;DHT22;23548;51.196;6.838;2022-08-02T07:49:55;22.20;99.90
37702;DHT22;23548;51.196;6.838;2022-08-02T07:52:21;22.30;99.90
37702;DHT22;23548;51.196;6.838;2022-08-02T07:54:47;22.50;99.90
37702;DHT22;23548;51.196;6.838;2022-08-02T07:57:13;22.60;99.90
37702;DHT22;23548;51.196;6.838;2022-08-02T07:59:38;22.70;99.90
37702;DHT22;23548;51.196;6.838;2022-08-02T08:02:04;22.80;99.90
37702;DHT22;23548;51.196;6.838;2022-08-02T08:04:30;23.00;99.90
37702;DHT22;23548;51.196;6.838;2022-08-02T08:06:55;23.20;99.90
37702;DHT22;23548;51.196;6.838;2022-08-02T08:09:22;23.30;99.90
37702;DHT22;23548;51.196;6.838;2022-08-02T08:11:47;23.40;99.90
37702;DHT22;23548;51.196;6.838;2022-08-02T08:14:13;23.50;99.90
37702;DHT22;23548;51.196;6.838;2022-08-02T08:16:39;23.70;99.90
37702;DHT22;23548;51.196;6.838;2022-08-02T08:19:05;23.80;99.90
37702;DHT22;23548;51.196;6.838;2022-08-02T08:21:30;24.00;99.90
37702;DHT22;23548;51.196;6.838;2022-08-02T08:23:56;24.20;99.90
37702;DHT22;23548;51.196;6.838;2022-08-02T08:26:22;24.20;99.90
37702;DHT22;23548;51.196;6.838;2022-08-02T08:28:48;24.10;99.90
37702;DHT22;23548;51.196;6.838;2022-08-02T08:31:14;24.20;99.90
37702;DHT22;23548;51.196;6.838;2022-08-02T08:33:40;23.90;99.90
37702;DHT22;23548;51.196;6.838;2022-08-02T08:36:06;24.10;99.90
37702;DHT22;23548;51.196;6.838;2022-08-02T08:38:32;24.40;99.90
37702;DHT22;23548;51.196;6.838;2022-08-02T08:40:58;24.50;99.90
37702;DHT22;23548;51.196;6.838;2022-08-02T08:43:24;24.50;99.90
37702;DHT22;23548;51.196;6.838;2022-08-02T08:45:50;24.70;99.90
37702;DHT22;23548;51.196;6.838;2022-08-02T08:48:17;24.30;99.90
37702;DHT22;23548;51.196;6.838;2022-08-02T08:50:55;24.30;99.90
37702;DHT22;23548;51.196;6.838;2022-08-02T08:53:23;24.30;99.90
37702;DHT22;23548;51.196;6.838;2022-08-02T08:55:52;24.30;99.90
37702;DHT22;23548;51.196;6.838;2022-08-02T08:58:21;24.20;99.90
37702;DHT22;23548;51.196;6.838;2022-08-02T09:00:46;24.20;99.90
37702;DHT22;23548;51.196;6.838;2022-08-02T09:03:14;24.30;99.90
37702;DHT22;23548;51.196;6.838;2022-08-02T09:05:40;24.50;99.90
37702;DHT22;23548;51.196;6.838;2022-08-02T09:08:11;24.60;99.90
37702;DHT22;23548;51.196;6.838;2022-08-02T09:10:42;24.50;99.90
37702;DHT22;23548;51.196;6.838;2022-08-02T09:15:55;24.60;99.90
37702;DHT22;23548;51.196;6.838;2022-08-02T09:18:31;24.50;99.90
37702;DHT22;23548;51.196;6.838;2022-08-02T09:21:00;24.70;99.90
37702;DHT22;23548;51.196;6.838;2022-08-02T09:23:34;24.90;99.90
37702;DHT22;23548;51.196;6.838;2022-08-02T09:26:20;25.00;99.90
37702;DHT22;23548;51.196;6.838;2022-08-02T09:28:51;25.30;99.90
37702;DHT22;23548;51.196;6.838;2022-08-02T09:31:20;25.20;99.90
37702;DHT22;23548;51.196;6.838;2022-08-02T09:33:54;25.10;99.90
37702;DHT22;23548;51.196;6.838;2022-08-02T09:36:21;25.10;99.90
37702;DHT22;23548;51.196;6.838;2022-08-02T09:38:55;25.20;99.90
37702;DHT22;23548;51.196;6.838;2022-08-02T09:41:29;25.60;99.90
37702;DHT22;23548;51.196;6.838;2022-08-02T09:43:56;26.00;99.90
37702;DHT22;23548;51.196;6.838;2022-08-02T09:46:25;25.70;99.90
37702;DHT22;23548;51.196;6.838;2022-08-02T09:48:59;25.80;99.90
37702;DHT22;23548;51.196;6.838;2022-08-02T09:51:30;26.40;99.90
37702;DHT22;23548;51.196;6.838;2022-08-02T09:54:00;26.20;99.90
37702;DHT22;23548;51.196;6.838;2022-08-02T09:56:27;26.10;99.90
37702;DHT22;23548;51.196;6.838;2022-08-02T09:59:06;26.20;99.90
37702;DHT22;23548;51.196;6.838;2022-08-02T10:01:33;26.70;99.90
37702;DHT22;23548;51.196;6.838;2022-08-02T10:04:02;27.10;99.90
37702;DHT22;23548;51.196;6.838;2022-08-02T10:06:28;27.20;99.90
37702;DHT22;23548;51.196;6.838;2022-08-02T10:08:54;27.40;99.50
37702;DHT22;23548;51.196;6.838;2022-08-02T10:11:25;27.60;99.00
37702;DHT22;23548;51.196;6.838;2022-08-02T10:13:52;28.20;98.10
37702;DHT22;23548;51.196;6.838;2022-08-02T10:16:19;28.40;96.60
37702;DHT22;23548;51.196;6.838;2022-08-02T10:18:49;27.80;97.00
37702;DHT22;23548;51.196;6.838;2022-08-02T10:21:42;27.40;97.70
37702;DHT22;23548;51.196;6.838;2022-08-02T10:24:10;27.10;97.40
37702;DHT22;23548;51.196;6.838;2022-08-02T10:26:39;27.30;97.60
37702;DHT22;23548;51.196;6.838;2022-08-02T10:29:05;27.40;97.40
37702;DHT22;23548;51.196;6.838;2022-08-02T10:31:57;27.20;97.90
37702;DHT22;23548;51.196;6.838;2022-08-02T10:34:28;26.90;97.90
37702;DHT22;23548;51.196;6.838;2022-08-02T10:36:54;26.70;97.60
37702;DHT22;23548;51.196;6.838;2022-08-02T10:39:21;26.50;97.70
37702;DHT22;23548;51.196;6.838;2022-08-02T10:41:51;26.30;98.00
37702;DHT22;23548;51.196;6.838;2022-08-02T10:44:28;26.40;97.50
37702;DHT22;23548;51.196;6.838;2022-08-02T10:50:00;26.80;96.20
37702;DHT22;23548;51.196;6.838;2022-08-02T10:52:29;27.20;94.80
37702;DHT22;23548;51.196;6.838;2022-08-02T10:55:00;27.40;94.30
37702;DHT22;23548;51.196;6.838;2022-08-02T10:57:31;27.80;93.80
37702;DHT22;23548;51.196;6.838;2022-08-02T11:00:10;27.70;93.30
37702;DHT22;23548;51.196;6.838;2022-08-02T11:02:44;27.60;93.30
37702;DHT22;23548;51.196;6.838;2022-08-02T11:05:37;27.60;93.10
37702;DHT22;23548;51.196;6.838;2022-08-02T11:08:19;27.60;92.50
37702;DHT22;23548;51.196;6.838;2022-08-02T11:10:45;27.80;92.10
37702;DHT22;23548;51.196;6.838;2022-08-02T11:13:14;27.90;91.90
37702;DHT22;23548;51.196;6.838;2022-08-02T11:16:00;27.70;92.70
37702;DHT22;23548;51.196;6.838;2022-08-02T11:19:07;28.00;92.60
37702;DHT22;23548;51.196;6.838;2022-08-02T11:21:34;28.20;91.60
37702;DHT22;23548;51.196;6.838;2022-08-02T11:24:35;28.20;91.10
37702;DHT22;23548;51.196;6.838;2022-08-02T11:27:04;28.00;91.20
37702;DHT22;23548;51.196;6.838;2022-08-02T11:29:38;28.00;91.30
37702;DHT22;23548;51.196;6.838;2022-08-02T11:32:26;28.20;91.10
37702;DHT22;23548;51.196;6.838;2022-08-02T11:34:53;28.30;90.80
37702;DHT22;23548;51.196;6.838;2022-08-02T11:37:36;28.70;89.30
37702;DHT22;23548;51.196;6.838;2022-08-02T11:40:04;29.20;88.00
37702;DHT22;23548;51.196;6.838;2022-08-02T11:42:34;29.10;86.10
37702;DHT22;23548;51.196;6.838;2022-08-02T11:45:01;29.10;87.30
37702;DHT22;23548;51.196;6.838;2022-08-02T11:47:28;29.00;88.70
37702;DHT22;23548;51.196;6.838;2022-08-02T11:50:08;29.00;87.30
37702;DHT22;23548;51.196;6.838;2022-08-02T11:52:35;29.10;86.90
37702;DHT22;23548;51.196;6.838;2022-08-02T11:55:02;29.20;87.30
37702;DHT22;23548;51.196;6.838;2022-08-02T11:57:27;29.00;86.80
37702;DHT22;23548;51.196;6.838;2022-08-02T11:59:55;28.40;88.60
37702;DHT22;23548;51.196;6.838;2022-08-02T12:02:26;29.00;87.50
37702;DHT22;23548;51.196;6.838;2022-08-02T12:04:58;29.10;86.10
37702;DHT22;23548;51.196;6.838;2022-08-02T12:07:35;29.20;85.60
37702;DHT22;23548;51.196;6.838;2022-08-02T12:10:28;29.10;85.70
37702;DHT22;23548;51.196;6.838;2022-08-02T12:12:56;29.10;85.50
37702;DHT22;23548;51.196;6.838;2022-08-02T12:15:40;29.60;84.80
37702;DHT22;23548;51.196;6.838;2022-08-02T12:18:14;29.10;85.50
37702;DHT22;23548;51.196;6.838;2022-08-02T12:20:58;29.40;84.70
37702;DHT22;23548;51.196;6.838;2022-08-02T12:23:24;29.60;83.50
37702;DHT22;23548;51.196;6.838;2022-08-02T12:26:03;30.00;83.00
37702;DHT22;23548;51.196;6.838;2022-08-02T12:28:33;29.60;81.50
37702;DHT22;23548;51.196;6.838;2022-08-02T12:31:00;29.20;81.90
37702;DHT22;23548;51.196;6.838;2022-08-02T12:33:28;29.30;82.60
37702;DHT22;23548;51.196;6.838;2022-08-02T12:36:24;29.40;81.70
37702;DHT22;23548;51.196;6.838;2022-08-02T12:38:56;29.50;81.10
37702;DHT22;23548;51.196;6.838;2022-08-02T12:41:23;29.90;79.90
37702;DHT22;23548;51.196;6.838;2022-08-02T12:43:50;30.10;78.90
37702;DHT22;23548;51.196;6.838;2022-08-02T12:46:20;30.00;76.90
37702;DHT22;23548;51.196;6.838;2022-08-02T12:48:47;30.00;76.30
37702;DHT22;23548;51.196;6.838;2022-08-02T12:51:36;30.00;77.60
37702;DHT22;23548;51.196;6.838;2022-08-02T12:54:15;30.30;76.20
37702;DHT22;23548;51.196;6.838;2022-08-02T12:56:41;30.30;75.40
37702;DHT22;23548;51.196;6.838;2022-08-02T12:59:07;30.60;73.20
37702;DHT22;23548;51.196;6.838;2022-08-02T13:01:34;30.50;71.40
37702;DHT22;23548;51.196;6.838;2022-08-02T13:04:00;30.30;70.60
37702;DHT22;23548;51.196;6.838;2022-08-02T13:06:26;30.20;72.30
37702;DHT22;23548;51.196;6.838;2022-08-02T13:08:52;30.20;71.60
37702;DHT22;23548;51.196;6.838;2022-08-02T13:11:20;30.40;72.00
37702;DHT22;23548;51.196;6.838;2022-08-02T13:13:46;31.00;71.20
37702;DHT22;23548;51.196;6.838;2022-08-02T13:16:13;31.00;70.10
37702;DHT22;23548;51.196;6.838;2022-08-02T13:18:39;31.00;70.50
37702;DHT22;23548;51.196;6.838;2022-08-02T13:21:05;31.30;70.90
37702;DHT22;23548;51.196;6.838;2022-08-02T13:23:32;31.20;71.40
37702;DHT22;23548;51.196;6.838;2022-08-02T13:25:59;31.40;71.20
37702;DHT22;23548;51.196;6.838;2022-08-02T13:28:25;31.20;71.40
37702;DHT22;23548;51.196;6.838;2022-08-02T13:30:51;30.90;72.50
37702;DHT22;23548;51.196;6.838;2022-08-02T13:33:17;31.10;71.20
37702;DHT22;23548;51.196;6.838;2022-08-02T13:35:44;31.00;72.00
37702;DHT22;23548;51.196;6.838;2022-08-02T13:38:09;31.50;70.90
37702;DHT22;23548;51.196;6.838;2022-08-02T13:40:35;32.40;69.70
37702;DHT22;23548;51.196;6.838;2022-08-02T13:43:19;32.10;69.20
37702;DHT22;23548;51.196;6.838;2022-08-02T13:45:45;31.40;70.50
37702;DHT22;23548;51.196;6.838;2022-08-02T13:48:11;31.60;69.90
37702;DHT22;23548;51.196;6.838;2022-08-02T13:50:36;31.70;69.60
37702;DHT22;23548;51.196;6.838;2022-08-02T13:53:02;32.80;68.10
37702;DHT22;23548;51.196;6.838;2022-08-02T13:55:28;34.50;64.30
37702;DHT22;23548;51.196;6.838;2022-08-02T13:57:54;34.70;62.20
37702;DHT22;23548;51.196;6.838;2022-08-02T14:00:20;35.10;61.50
37702;DHT22;23548;51.196;6.838;2022-08-02T14:02:46;35.80;59.50
37702;DHT22;23548;51.196;6.838;2022-08-02T14:05:11;35.20;59.50
37702;DHT22;23548;51.196;6.838;2022-08-02T14:07:37;35.30;60.60
37702;DHT22;23548;51.196;6.838;2022-08-02T14:10:03;34.80;59.50
37702;DHT22;23548;51.196;6.838;2022-08-02T14:12:29;35.30;59.30
37702;DHT22;23548;51.196;6.838;2022-08-02T14:14:55;36.80;57.10
37702;DHT22;23548;51.196;6.838;2022-08-02T14:17:21;36.60;55.70
37702;DHT22;23548;51.196;6.838;2022-08-02T14:19:46;36.50;55.50
37702;DHT22;23548;51.196;6.838;2022-08-02T14:22:12;36.60;55.10
37702;DHT22;23548;51.196;6.838;2022-08-02T14:24:38;35.80;55.90
37702;DHT22;23548;51.196;6.838;2022-08-02T14:27:06;36.80;53.90
37702;DHT22;23548;51.196;6.838;2022-08-02T14:29:31;36.50;54.10
37702;DHT22;23548;51.196;6.838;2022-08-02T14:31:57;37.00;52.90
37702;DHT22;23548;51.196;6.838;2022-08-02T14:34:23;36.10;54.30
37702;DHT22;23548;51.196;6.838;2022-08-02T14:36:48;36.80;53.20
37702;DHT22;23548;51.196;6.838;2022-08-02T14:39:14;36.90;52.60
37702;DHT22;23548;51.196;6.838;2022-08-02T14:41:40;36.90;51.60
37702;DHT22;23548;51.196;6.838;2022-08-02T14:44:06;39.00;50.20
37702;DHT22;23548;51.196;6.838;2022-08-02T14:46:37;38.60;49.50
37702;DHT22;23548;51.196;6.838;2022-08-02T14:49:05;37.50;50.70
37702;DHT22;23548;51.196;6.838;2022-08-02T14:51:33;38.20;49.00
37702;DHT22;23548;51.196;6.838;2022-08-02T14:53:59;38.20;48.50
37702;DHT22;23548;51.196;6.838;2022-08-02T14:56:26;37.80;48.70
37702;DHT22;23548;51.196;6.838;2022-08-02T14:58:52;37.90;48.50
37702;DHT22;23548;51.196;6.838;2022-08-02T15:01:18;38.20;48.60
37702;DHT22;23548;51.196;6.838;2022-08-02T15:03:44;38.40;47.80
37702;DHT22;23548;51.196;6.838;2022-08-02T15:06:10;38.50;47.60
37702;DHT22;23548;51.196;6.838;2022-08-02T15:08:35;38.30;48.40
37702;DHT22;23548;51.196;6.838;2022-08-02T15:11:01;38.20;47.30
37702;DHT22;23548;51.196;6.838;2022-08-02T15:13:27;38.30;47.60
37702;DHT22;23548;51.196;6.838;2022-08-02T15:15:53;37.50;48.50
37702;DHT22;23548;51.196;6.838;2022-08-02T15:18:19;37.90;47.90
37702;DHT22;23548;51.196;6.838;2022-08-02T15:20:44;38.90;46.70
37702;DHT22;23548;51.196;6.838;2022-08-02T15:23:15;39.70;45.70
37702;DHT22;23548;51.196;6.838;2022-08-02T15:25:41;39.20;46.00
37702;DHT22;23548;51.196;6.838;2022-08-02T15:28:07;38.30;46.10
37702;DHT22;23548;51.196;6.838;2022-08-02T15:30:33;39.00;45.90
37702;DHT22;23548;51.196;6.838;2022-08-02T15:32:59;39.10;45.10
37702;DHT22;23548;51.196;6.838;2022-08-02T15:35:25;38.80;45.40
37702;DHT22;23548;51.196;6.838;2022-08-02T15:37:51;38.50;46.10
37702;DHT22;23548;51.196;6.838;2022-08-02T15:40:17;38.20;45.90
37702;DHT22;23548;51.196;6.838;2022-08-02T15:42:43;38.80;45.30
37702;DHT22;23548;51.196;6.838;2022-08-02T15:45:09;39.00;44.50
37702;DHT22;23548;51.196;6.838;2022-08-02T15:47:35;38.90;44.50
37702;DHT22;23548;51.196;6.838;2022-08-02T15:50:01;39.10;44.40
37702;DHT22;23548;51.196;6.838;2022-08-02T15:52:27;39.90;43.80
37702;DHT22;23548;51.196;6.838;2022-08-02T15:54:54;40.50;42.80
37702;DHT22;23548;51.196;6.838;2022-08-02T15:57:19;40.20;42.40
37702;DHT22;23548;51.196;6.838;2022-08-02T15:59:45;38.80;43.70
37702;DHT22;23548;51.196;6.838;2022-08-02T16:02:11;38.40;44.50
37702;DHT22;23548;51.196;6.838;2022-08-02T16:04:38;38.90;43.20
37702;DHT22;23548;51.196;6.838;2022-08-02T16:07:04;39.40;43.30
37702;DHT22;23548;51.196;6.838;2022-08-02T16:09:30;38.70;43.40
37702;DHT22;23548;51.196;6.838;2022-08-02T16:11:56;36.50;45.00